sensor_id;sensor_type;location;lat;lon;timestamp;P1;durP1;ratioP1;P2;durP2;ratioP2
10090;SDS011;5084;51.386;6.778;2023-10-08T00:01:14;5.40;;;4.50;;
10090;SDS011;5084;51.386;6.778;2023-10-08T00:03:41;6.03;;;5.10;;
10090;SDS011;5084;51.386;6.778;2023-10-08T00:06:14;4.77;;;4.30;;
10090;SDS011;5084;51.386;6.778;2023-10-08T00:08:40;6.90;;;5.13;;
10090;SDS011;5084;51.386;6.778;2023-10-08T00:11:06;5.53;;;4.33;;
10090;SDS011;5084;51.386;6.778;2023-10-08T00:13:35;6.13;;;4.23;;
10090;SDS011;5084;51.386;6.778;2023-10-08T00:16:08;7.73;;;4.53;;
10090;SDS011;5084;51.386;6.778;2023-10-08T00:18:35;6.87;;;5.07;;
10090;SDS011;5084;51.386;6.778;2023-10-08T00:21:02;6.23;;;5.03;;
10090;SDS011;5084;51.386;6.778;2023-10-08T00:23:51;4.73;;;4.00;;
10090;SDS011;5084;51.386;6.778;2023-10-08T00:26:20;7.87;;;4.97;;
10090;SDS011;5084;51.386;6.778;2023-10-08T00:28:56;9.97;;;6.03;;
10090;SDS011;5084;51.386;6.778;2023-10-08T00:31:24;5.83;;;5.23;;
10090;SDS011;5084;51.386;6.778;2023-10-08T00:33:55;7.30;;;4.77;;
10090;SDS011;5084;51.386;6.778;2023-10-08T00:36:22;6.23;;;5.30;;
10090;SDS011;5084;51.386;6.778;2023-10-08T00:38:49;7.40;;;5.33;;
10090;SDS011;5084;51.386;6.778;2023-10-08T00:41:23;7.80;;;5.37;;
10090;SDS011;5084;51.386;6.778;2023-10-08T00:43:53;6.67;;;5.77;;
10090;SDS011;5084;51.386;6.778;2023-10-08T00:46:22;6.33;;;5.47;;
10090;SDS011;5084;51.386;6.778;2023-10-08T00:48:52;8.03;;;5.93;;
10090;SDS011;5084;51.386;6.778;2023-10-08T00:51:35;7.17;;;5.47;;
10090;SDS011;5084;51.386;6.778;2023-10-08T00:54:06;8.20;;;5.43;;
10090;SDS011;5084;51.386;6.778;2023-10-08T00:56:33;6.33;;;5.00;;
10090;SDS011;5084;51.386;6.778;2023-10-08T00:59:30;7.53;;;4.97;;
10090;SDS011;5084;51.386;6.778;2023-10-08T01:02:02;7.00;;;5.33;;
10090;SDS011;5084;51.386;6.778;2023-10-08T01:04:33;5.60;;;5.07;;
10090;SDS011;5084;51.386;6.778;2023-10-08T01:07:00;6.77;;;4.90;;
10090;SDS011;5084;51.386;6.778;2023-10-08T01:09:35;7.27;;;4.90;;
10090;SDS011;5084;51.386;6.778;2023-10-08T01:12:12;6.13;;;5.07;;
10090;SDS011;5084;51.386;6.778;2023-10-08T01:14:46;8.53;;;5.50;;
10090;SDS011;5084;51.386;6.778;2023-10-08T01:17:14;6.43;;;5.60;;
10090;SDS011;5084;51.386;6.778;2023-10-08T01:19:45;7.33;;;5.30;;
10090;SDS011;5084;51.386;6.778;2023-10-08T01:22:20;7.37;;;5.33;;
10090;SDS011;5084;51.386;6.778;2023-10-08T01:24:52;8.13;;;5.73;;
10090;SDS011;5084;51.386;6.778;2023-10-08T01:27:18;8.97;;;5.37;;
10090;SDS011;5084;51.386;6.778;2023-10-08T01:29:47;7.43;;;5.13;;
10090;SDS011;5084;51.386;6.778;2023-10-08T01:32:15;5.67;;;4.60;;
10090;SDS011;5084;51.386;6.778;2023-10-08T01:34:42;7.60;;;4.83;;
10090;SDS011;5084;51.386;6.778;2023-10-08T01:37:19;7.83;;;5.53;;
10090;SDS011;5084;51.386;6.778;2023-10-08T01:39:46;5.87;;;4.60;;
10090;SDS011;5084;51.386;6.778;2023-10-08T01:42:15;6.40;;;4.70;;
10090;SDS011;5084;51.386;6.778;2023-10-08T01:44:46;5.50;;;4.67;;
10090;SDS011;5084;51.386;6.778;2023-10-08T01:47:13;5.83;;;4.80;;
10090;SDS011;5084;51.386;6.778;2023-10-08T01:49:41;5.90;;;5.20;;
10090;SDS011;5084;51.386;6.778;2023-10-08T01:52:09;5.90;;;4.27;;
10090;SDS011;5084;51.386;6.778;2023-10-08T01:54:55;5.07;;;4.43;;
10090;SDS011;5084;51.386;6.778;2023-10-08T01:57:22;5.87;;;4.30;;
10090;SDS011;5084;51.386;6.778;2023-10-08T01:59:48;6.63;;;5.13;;
10090;SDS011;5084;51.386;6.778;2023-10-08T02:02:14;6.53;;;4.60;;
10090;SDS011;5084;51.386;6.778;2023-10-08T02:04:40;6.07;;;4.00;;
10090;SDS011;5084;51.386;6.778;2023-10-08T02:07:07;5.57;;;4.50;;
10090;SDS011;5084;51.386;6.778;2023-10-08T02:09:36;4.83;;;4.10;;
10090;SDS011;5084;51.386;6.778;2023-10-08T02:12:02;5.97;;;4.27;;
10090;SDS011;5084;51.386;6.778;2023-10-08T02:14:29;5.93;;;4.77;;
10090;SDS011;5084;51.386;6.778;2023-10-08T02:16:56;6.67;;;4.53;;
10090;SDS011;5084;51.386;6.778;2023-10-08T02:19:26;9.43;;;4.63;;
10090;SDS011;5084;51.386;6.778;2023-10-08T02:21:53;7.07;;;4.73;;
10090;SDS011;5084;51.386;6.778;2023-10-08T02:24:20;6.47;;;5.50;;
10090;SDS011;5084;51.386;6.778;2023-10-08T02:26:52;5.10;;;4.60;;
10090;SDS011;5084;51.386;6.778;2023-10-08T02:29:20;7.87;;;4.10;;
10090;SDS011;5084;51.386;6.778;2023-10-08T02:31:47;6.23;;;4.77;;
10090;SDS011;5084;51.386;6.778;2023-10-08T02:34:13;6.03;;;4.60;;
10090;SDS011;5084;51.386;6.778;2023-10-08T02:36:40;7.30;;;4.73;;
10090;SDS011;5084;51.386;6.778;2023-10-08T02:39:06;5.87;;;4.50;;
10090;SDS011;5084;51.386;6.778;2023-10-08T02:41:43;5.93;;;4.50;;
10090;SDS011;5084;51.386;6.778;2023-10-08T02:44:11;5.13;;;4.03;;
10090;SDS011;5084;51.386;6.778;2023-10-08T02:46:42;6.20;;;4.67;;
10090;SDS011;5084;51.386;6.778;2023-10-08T02:49:09;6.40;;;4.53;;
10090;SDS011;5084;51.386;6.778;2023-10-08T02:51:38;6.43;;;4.60;;
10090;SDS011;5084;51.386;6.778;2023-10-08T02:54:06;5.17;;;4.67;;
10090;SDS011;5084;51.386;6.778;2023-10-08T02:56:41;5.40;;;4.60;;
10090;SDS011;5084;51.386;6.778;2023-10-08T02:59:09;4.87;;;4.27;;
10090;SDS011;5084;51.386;6.778;2023-10-08T03:01:37;7.07;;;4.70;;
10090;SDS011;5084;51.386;6.778;2023-10-08T03:04:05;6.33;;;4.20;;
10090;SDS011;5084;51.386;6.778;2023-10-08T03:06:39;7.37;;;4.13;;
10090;SDS011;5084;51.386;6.778;2023-10-08T03:09:06;7.33;;;4.13;;
10090;SDS011;5084;51.386;6.778;2023-10-08T03:11:38;5.60;;;4.50;;
10090;SDS011;5084;51.386;6.778;2023-10-08T03:14:04;5.13;;;4.63;;
10090;SDS011;5084;51.386;6.778;2023-10-08T03:16:39;8.83;;;8.10;;
10090;SDS011;5084;51.386;6.778;2023-10-08T03:19:06;7.13;;;4.53;;
10090;SDS011;5084;51.386;6.778;2023-10-08T03:21:33;6.93;;;4.57;;
10090;SDS011;5084;51.386;6.778;2023-10-08T03:24:03;6.93;;;4.60;;
10090;SDS011;5084;51.386;6.778;2023-10-08T03:26:37;5.90;;;4.67;;
10090;SDS011;5084;51.386;6.778;2023-10-08T03:29:05;4.30;;;3.90;;
10090;SDS011;5084;51.386;6.778;2023-10-08T03:31:41;9.37;;;8.57;;
10090;SDS011;5084;51.386;6.778;2023-10-08T03:34:13;4.83;;;4.33;;
10090;SDS011;5084;51.386;6.778;2023-10-08T03:36:40;5.30;;;4.50;;
10090;SDS011;5084;51.386;6.778;2023-10-08T03:39:10;7.73;;;4.63;;
10090;SDS011;5084;51.386;6.778;2023-10-08T03:41:42;5.03;;;4.43;;
10090;SDS011;5084;51.386;6.778;2023-10-08T03:44:23;6.37;;;4.60;;
10090;SDS011;5084;51.386;6.778;2023-10-08T03:46:49;9.27;;;4.63;;
10090;SDS011;5084;51.386;6.778;2023-10-08T03:49:17;5.03;;;4.00;;
10090;SDS011;5084;51.386;6.778;2023-10-08T03:51:47;4.80;;;3.97;;
10090;SDS011;5084;51.386;6.778;2023-10-08T03:54:16;5.90;;;4.07;;
10090;SDS011;5084;51.386;6.778;2023-10-08T03:56:44;7.67;;;4.50;;
10090;SDS011;5084;51.386;6.778;2023-10-08T03:59:17;5.37;;;4.07;;
10090;SDS011;5084;51.386;6.778;2023-10-08T04:02:00;5.37;;;4.10;;
10090;SDS011;5084;51.386;6.778;2023-10-08T04:04:46;6.43;;;4.23;;
10090;SDS011;5084;51.386;6.778;2023-10-08T04:07:22;7.60;;;3.93;;
10090;SDS011;5084;51.386;6.778;2023-10-08T04:09:58;6.23;;;4.67;;
10090;SDS011;5084;51.386;6.778;2023-10-08T04:12:50;7.20;;;4.40;;
10090;SDS011;5084;51.386;6.778;2023-10-08T04:15:18;5.90;;;4.60;;
10090;SDS011;5084;51.386;6.778;2023-10-08T04:17:44;5.07;;;4.13;;
10090;SDS011;5084;51.386;6.778;2023-10-08T04:20:16;6.27;;;4.77;;
10090;SDS011;5084;51.386;6.778;2023-10-08T04:23:01;5.77;;;4.33;;
10090;SDS011;5084;51.386;6.778;2023-10-08T04:25:29;7.60;;;5.70;;
10090;SDS011;5084;51.386;6.778;2023-10-08T04:27:56;8.40;;;4.27;;
10090;SDS011;5084;51.386;6.778;2023-10-08T04:30:26;6.47;;;4.00;;
10090;SDS011;5084;51.386;6.778;2023-10-08T04:32:58;5.37;;;4.20;;
10090;SDS011;5084;51.386;6.778;2023-10-08T04:35:24;5.83;;;4.60;;
10090;SDS011;5084;51.386;6.778;2023-10-08T04:37:51;5.10;;;3.90;;
10090;SDS011;5084;51.386;6.778;2023-10-08T04:40:18;5.57;;;4.93;;
10090;SDS011;5084;51.386;6.778;2023-10-08T04:42:48;4.63;;;3.80;;
10090;SDS011;5084;51.386;6.778;2023-10-08T04:45:14;5.77;;;4.47;;
10090;SDS011;5084;51.386;6.778;2023-10-08T04:47:44;4.83;;;4.13;;
10090;SDS011;5084;51.386;6.778;2023-10-08T04:50:14;6.10;;;4.23;;
10090;SDS011;5084;51.386;6.778;2023-10-08T04:52:43;6.73;;;4.43;;
10090;SDS011;5084;51.386;6.778;2023-10-08T04:55:23;7.20;;;4.30;;
10090;SDS011;5084;51.386;6.778;2023-10-08T04:57:54;5.83;;;4.33;;
10090;SDS011;5084;51.386;6.778;2023-10-08T05:00:20;6.13;;;4.27;;
10090;SDS011;5084;51.386;6.778;2023-10-08T05:03:06;5.27;;;4.33;;
10090;SDS011;5084;51.386;6.778;2023-10-08T05:05:41;5.53;;;4.10;;
10090;SDS011;5084;51.386;6.778;2023-10-08T05:08:22;6.20;;;4.60;;
10090;SDS011;5084;51.386;6.778;2023-10-08T05:11:08;7.10;;;4.43;;
10090;SDS011;5084;51.386;6.778;2023-10-08T05:13:49;6.17;;;4.53;;
10090;SDS011;5084;51.386;6.778;2023-10-08T05:16:30;5.73;;;4.30;;
10090;SDS011;5084;51.386;6.778;2023-10-08T05:19:09;5.13;;;4.40;;
10090;SDS011;5084;51.386;6.778;2023-10-08T05:22:11;5.30;;;4.07;;
10090;SDS011;5084;51.386;6.778;2023-10-08T05:24:55;5.63;;;4.33;;
10090;SDS011;5084;51.386;6.778;2023-10-08T05:27:42;6.10;;;4.10;;
10090;SDS011;5084;51.386;6.778;2023-10-08T05:30:14;5.97;;;5.30;;
10090;SDS011;5084;51.386;6.778;2023-10-08T05:32:42;6.00;;;4.83;;
10090;SDS011;5084;51.386;6.778;2023-10-08T05:35:31;5.63;;;4.53;;
10090;SDS011;5084;51.386;6.778;2023-10-08T05:38:14;4.53;;;4.10;;
10090;SDS011;5084;51.386;6.778;2023-10-08T05:40:48;5.37;;;4.13;;
10090;SDS011;5084;51.386;6.778;2023-10-08T05:43:26;5.90;;;3.93;;
10090;SDS011;5084;51.386;6.778;2023-10-08T05:46:02;5.30;;;4.10;;
10090;SDS011;5084;51.386;6.778;2023-10-08T05:48:53;4.43;;;3.67;;
10090;SDS011;5084;51.386;6.778;2023-10-08T05:51:30;5.03;;;3.87;;
10090;SDS011;5084;51.386;6.778;2023-10-08T05:54:16;7.30;;;4.47;;
10090;SDS011;5084;51.386;6.778;2023-10-08T05:56:55;9.23;;;6.05;;
10090;SDS011;5084;51.386;6.778;2023-10-08T05:59:37;6.33;;;4.83;;
10090;SDS011;5084;51.386;6.778;2023-10-08T06:02:17;10.43;;;4.87;;
10090;SDS011;5084;51.386;6.778;2023-10-08T06:07:39;8.40;;;5.73;;
10090;SDS011;5084;51.386;6.778;2023-10-08T06:10:18;9.03;;;5.27;;
10090;SDS011;5084;51.386;6.778;2023-10-08T06:12:58;5.30;;;4.53;;
10090;SDS011;5084;51.386;6.778;2023-10-08T06:15:36;8.33;;;5.80;;
10090;SDS011;5084;51.386;6.778;2023-10-08T06:18:19;6.90;;;5.13;;
10090;SDS011;5084;51.386;6.778;2023-10-08T06:20:45;7.70;;;5.47;;
10090;SDS011;5084;51.386;6.778;2023-10-08T06:23:12;8.83;;;5.50;;
10090;SDS011;5084;51.386;6.778;2023-10-08T06:25:43;6.80;;;5.27;;
10090;SDS011;5084;51.386;6.778;2023-10-08T06:28:16;7.83;;;5.60;;
10090;SDS011;5084;51.386;6.778;2023-10-08T06:30:48;11.10;;;5.70;;
10090;SDS011;5084;51.386;6.778;2023-10-08T06:33:15;10.40;;;5.30;;
10090;SDS011;5084;51.386;6.778;2023-10-08T06:35:44;9.10;;;5.13;;
10090;SDS011;5084;51.386;6.778;2023-10-08T06:38:10;7.07;;;5.30;;
10090;SDS011;5084;51.386;6.778;2023-10-08T06:40:40;9.97;;;5.83;;
10090;SDS011;5084;51.386;6.778;2023-10-08T06:43:06;8.00;;;5.40;;
10090;SDS011;5084;51.386;6.778;2023-10-08T06:45:49;12.10;;;6.10;;
10090;SDS011;5084;51.386;6.778;2023-10-08T06:48:22;9.17;;;5.80;;
10090;SDS011;5084;51.386;6.778;2023-10-08T06:50:50;8.47;;;5.57;;
10090;SDS011;5084;51.386;6.778;2023-10-08T06:53:17;5.50;;;4.83;;
10090;SDS011;5084;51.386;6.778;2023-10-08T06:55:44;11.43;;;5.53;;
10090;SDS011;5084;51.386;6.778;2023-10-08T06:58:10;12.00;;;5.40;;
10090;SDS011;5084;51.386;6.778;2023-10-08T07:00:37;9.50;;;4.63;;
10090;SDS011;5084;51.386;6.778;2023-10-08T07:03:05;11.47;;;5.60;;
10090;SDS011;5084;51.386;6.778;2023-10-08T07:05:33;8.60;;;5.63;;
10090;SDS011;5084;51.386;6.778;2023-10-08T07:08:06;11.27;;;6.27;;
10090;SDS011;5084;51.386;6.778;2023-10-08T07:10:32;10.03;;;5.87;;
10090;SDS011;5084;51.386;6.778;2023-10-08T07:13:06;10.93;;;4.87;;
10090;SDS011;5084;51.386;6.778;2023-10-08T07:15:33;9.60;;;5.37;;
10090;SDS011;5084;51.386;6.778;2023-10-08T07:18:05;6.27;;;4.13;;
10090;SDS011;5084;51.386;6.778;2023-10-08T07:20:34;7.40;;;5.57;;
10090;SDS011;5084;51.386;6.778;2023-10-08T07:23:04;8.83;;;5.00;;
10090;SDS011;5084;51.386;6.778;2023-10-08T07:25:35;7.30;;;5.53;;
10090;SDS011;5084;51.386;6.778;2023-10-08T07:28:03;5.97;;;4.90;;
10090;SDS011;5084;51.386;6.778;2023-10-08T07:30:30;11.93;;;6.03;;
10090;SDS011;5084;51.386;6.778;2023-10-08T07:33:03;5.77;;;5.03;;
10090;SDS011;5084;51.386;6.778;2023-10-08T07:35:30;6.63;;;5.27;;
10090;SDS011;5084;51.386;6.778;2023-10-08T07:38:03;8.30;;;5.17;;
10090;SDS011;5084;51.386;6.778;2023-10-08T07:40:34;11.60;;;4.90;;
10090;SDS011;5084;51.386;6.778;2023-10-08T07:43:02;9.23;;;6.07;;
10090;SDS011;5084;51.386;6.778;2023-10-08T07:45:33;7.03;;;5.03;;
10090;SDS011;5084;51.386;6.778;2023-10-08T07:48:00;8.30;;;5.70;;
10090;SDS011;5084;51.386;6.778;2023-10-08T07:50:27;9.40;;;5.50;;
10090;SDS011;5084;51.386;6.778;2023-10-08T07:52:55;8.07;;;5.67;;
10090;SDS011;5084;51.386;6.778;2023-10-08T07:55:21;9.03;;;6.40;;
10090;SDS011;5084;51.386;6.778;2023-10-08T07:57:47;9.17;;;5.33;;
10090;SDS011;5084;51.386;6.778;2023-10-08T08:00:14;10.83;;;5.50;;
10090;SDS011;5084;51.386;6.778;2023-10-08T08:02:44;7.63;;;5.43;;
10090;SDS011;5084;51.386;6.778;2023-10-08T08:05:10;8.80;;;5.33;;
10090;SDS011;5084;51.386;6.778;2023-10-08T08:07:41;10.00;;;5.17;;
10090;SDS011;5084;51.386;6.778;2023-10-08T08:10:11;8.80;;;5.43;;
10090;SDS011;5084;51.386;6.778;2023-10-08T08:12:37;8.90;;;5.13;;
10090;SDS011;5084;51.386;6.778;2023-10-08T08:15:03;8.27;;;5.93;;
10090;SDS011;5084;51.386;6.778;2023-10-08T08:17:43;7.67;;;5.50;;
10090;SDS011;5084;51.386;6.778;2023-10-08T08:20:09;16.30;;;6.30;;
10090;SDS011;5084;51.386;6.778;2023-10-08T08:22:47;11.83;;;6.17;;
10090;SDS011;5084;51.386;6.778;2023-10-08T08:25:19;13.37;;;5.93;;
10090;SDS011;5084;51.386;6.778;2023-10-08T08:27:59;11.03;;;6.77;;
10090;SDS011;5084;51.386;6.778;2023-10-08T08:30:25;14.53;;;6.37;;
10090;SDS011;5084;51.386;6.778;2023-10-08T08:32:54;7.77;;;5.43;;
10090;SDS011;5084;51.386;6.778;2023-10-08T08:35:21;9.53;;;5.53;;
10090;SDS011;5084;51.386;6.778;2023-10-08T08:37:48;10.20;;;7.07;;
10090;SDS011;5084;51.386;6.778;2023-10-08T08:40:17;18.80;;;6.63;;
10090;SDS011;5084;51.386;6.778;2023-10-08T08:42:50;14.63;;;7.37;;
10090;SDS011;5084;51.386;6.778;2023-10-08T08:45:23;11.57;;;7.67;;
10090;SDS011;5084;51.386;6.778;2023-10-08T08:47:50;18.50;;;8.63;;
10090;SDS011;5084;51.386;6.778;2023-10-08T08:50:19;15.77;;;8.27;;
10090;SDS011;5084;51.386;6.778;2023-10-08T08:52:46;15.83;;;9.63;;
10090;SDS011;5084;51.386;6.778;2023-10-08T08:55:12;22.57;;;10.57;;
10090;SDS011;5084;51.386;6.778;2023-10-08T08:57:41;26.00;;;11.97;;
10090;SDS011;5084;51.386;6.778;2023-10-08T09:00:08;19.33;;;10.67;;
10090;SDS011;5084;51.386;6.778;2023-10-08T09:02:36;23.50;;;11.43;;
10090;SDS011;5084;51.386;6.778;2023-10-08T09:05:03;23.93;;;11.33;;
10090;SDS011;5084;51.386;6.778;2023-10-08T09:07:58;31.07;;;12.27;;
10090;SDS011;5084;51.386;6.778;2023-10-08T09:10:28;25.90;;;11.87;;
10090;SDS011;5084;51.386;6.778;2023-10-08T09:12:54;21.63;;;10.93;;
10090;SDS011;5084;51.386;6.778;2023-10-08T09:15:24;26.63;;;11.83;;
10090;SDS011;5084;51.386;6.778;2023-10-08T09:17:55;25.50;;;12.03;;
10090;SDS011;5084;51.386;6.778;2023-10-08T09:20:21;21.33;;;11.83;;
10090;SDS011;5084;51.386;6.778;2023-10-08T09:25:49;17.93;;;9.97;;
10090;SDS011;5084;51.386;6.778;2023-10-08T09:28:17;21.50;;;12.20;;
10090;SDS011;5084;51.386;6.778;2023-10-08T09:30:43;17.63;;;11.50;;
10090;SDS011;5084;51.386;6.778;2023-10-08T09:33:13;16.63;;;10.23;;
10090;SDS011;5084;51.386;6.778;2023-10-08T09:35:42;13.70;;;9.13;;
10090;SDS011;5084;51.386;6.778;2023-10-08T09:38:09;16.77;;;9.27;;
10090;SDS011;5084;51.386;6.778;2023-10-08T09:40:38;12.30;;;8.47;;
10090;SDS011;5084;51.386;6.778;2023-10-08T09:43:11;8.93;;;7.30;;
10090;SDS011;5084;51.386;6.778;2023-10-08T09:45:42;10.30;;;7.40;;
10090;SDS011;5084;51.386;6.778;2023-10-08T09:48:10;11.15;;;6.50;;
10090;SDS011;5084;51.386;6.778;2023-10-08T09:50:40;12.77;;;6.83;;
10090;SDS011;5084;51.386;6.778;2023-10-08T09:53:08;11.47;;;6.77;;
10090;SDS011;5084;51.386;6.778;2023-10-08T09:55:48;11.00;;;6.50;;
10090;SDS011;5084;51.386;6.778;2023-10-08T09:58:15;9.47;;;6.47;;
10090;SDS011;5084;51.386;6.778;2023-10-08T10:00:42;8.30;;;6.13;;
10090;SDS011;5084;51.386;6.778;2023-10-08T10:03:10;6.77;;;5.63;;
10090;SDS011;5084;51.386;6.778;2023-10-08T10:05:37;7.20;;;5.80;;
10090;SDS011;5084;51.386;6.778;2023-10-08T10:08:03;9.73;;;6.30;;
10090;SDS011;5084;51.386;6.778;2023-10-08T10:10:35;9.60;;;6.10;;
10090;SDS011;5084;51.386;6.778;2023-10-08T10:13:06;9.77;;;6.47;;
10090;SDS011;5084;51.386;6.778;2023-10-08T10:15:38;14.30;;;6.93;;
10090;SDS011;5084;51.386;6.778;2023-10-08T10:18:08;13.77;;;7.40;;
10090;SDS011;5084;51.386;6.778;2023-10-08T10:20:38;13.23;;;6.50;;
10090;SDS011;5084;51.386;6.778;2023-10-08T10:31:34;18.17;;;10.68;;
10090;SDS011;5084;51.386;6.778;2023-10-08T10:34:06;11.00;;;9.40;;
10090;SDS011;5084;51.386;6.778;2023-10-08T10:36:36;18.10;;;11.60;;
10090;SDS011;5084;51.386;6.778;2023-10-08T10:39:04;18.93;;;12.93;;
10090;SDS011;5084;51.386;6.778;2023-10-08T10:41:51;16.23;;;13.70;;
10090;SDS011;5084;51.386;6.778;2023-10-08T10:46:48;20.67;;;13.93;;
10090;SDS011;5084;51.386;6.778;2023-10-08T10:49:38;23.30;;;13.47;;
10090;SDS011;5084;51.386;6.778;2023-10-08T10:52:19;17.50;;;13.67;;
10090;SDS011;5084;51.386;6.778;2023-10-08T10:55:06;17.33;;;12.23;;
10090;SDS011;5084;51.386;6.778;2023-10-08T10:57:55;16.63;;;11.83;;
10090;SDS011;5084;51.386;6.778;2023-10-08T11:00:28;13.97;;;10.67;;
10090;SDS011;5084;51.386;6.778;2023-10-08T11:02:58;14.90;;;10.13;;
10090;SDS011;5084;51.386;6.778;2023-10-08T11:05:27;15.57;;;11.10;;
10090;SDS011;5084;51.386;6.778;2023-10-08T11:07:54;11.37;;;9.57;;
10090;SDS011;5084;51.386;6.778;2023-10-08T11:10:32;14.73;;;8.80;;
10090;SDS011;5084;51.386;6.778;2023-10-08T11:12:59;9.23;;;7.47;;
10090;SDS011;5084;51.386;6.778;2023-10-08T11:15:29;13.17;;;7.77;;
10090;SDS011;5084;51.386;6.778;2023-10-08T11:18:14;12.23;;;7.33;;
10090;SDS011;5084;51.386;6.778;2023-10-08T11:20:40;10.77;;;6.43;;
10090;SDS011;5084;51.386;6.778;2023-10-08T11:25:58;11.97;;;7.33;;
10090;SDS011;5084;51.386;6.778;2023-10-08T11:28:28;8.97;;;6.57;;
10090;SDS011;5084;51.386;6.778;2023-10-08T11:30:54;8.23;;;6.17;;
10090;SDS011;5084;51.386;6.778;2023-10-08T11:33:24;9.97;;;6.30;;
10090;SDS011;5084;51.386;6.778;2023-10-08T11:36:00;9.87;;;6.40;;
10090;SDS011;5084;51.386;6.778;2023-10-08T11:38:26;6.30;;;5.60;;
10090;SDS011;5084;51.386;6.778;2023-10-08T11:40:54;12.00;;;6.93;;
10090;SDS011;5084;51.386;6.778;2023-10-08T11:43:23;7.67;;;5.13;;
10090;SDS011;5084;51.386;6.778;2023-10-08T11:45:49;6.47;;;4.87;;
10090;SDS011;5084;51.386;6.778;2023-10-08T11:48:16;5.93;;;5.33;;
10090;SDS011;5084;51.386;6.778;2023-10-08T11:50:50;8.30;;;4.70;;
10090;SDS011;5084;51.386;6.778;2023-10-08T11:53:16;6.83;;;5.17;;
10090;SDS011;5084;51.386;6.778;2023-10-08T11:55:44;5.90;;;5.03;;
10090;SDS011;5084;51.386;6.778;2023-10-08T11:58:13;7.33;;;4.73;;
10090;SDS011;5084;51.386;6.778;2023-10-08T12:00:43;5.60;;;4.23;;
10090;SDS011;5084;51.386;6.778;2023-10-08T12:03:16;6.60;;;5.23;;
10090;SDS011;5084;51.386;6.778;2023-10-08T12:05:43;7.53;;;4.50;;
10090;SDS011;5084;51.386;6.778;2023-10-08T12:08:13;5.67;;;3.77;;
10090;SDS011;5084;51.386;6.778;2023-10-08T12:10:41;5.57;;;4.23;;
10090;SDS011;5084;51.386;6.778;2023-10-08T12:13:08;7.50;;;4.17;;
10090;SDS011;5084;51.386;6.778;2023-10-08T12:15:35;5.47;;;4.50;;
10090;SDS011;5084;51.386;6.778;2023-10-08T12:18:04;4.83;;;3.77;;
10090;SDS011;5084;51.386;6.778;2023-10-08T12:20:36;5.60;;;3.77;;
10090;SDS011;5084;51.386;6.778;2023-10-08T12:23:03;6.23;;;4.37;;
10090;SDS011;5084;51.386;6.778;2023-10-08T12:25:30;6.80;;;4.87;;
10090;SDS011;5084;51.386;6.778;2023-10-08T12:27:57;8.27;;;5.70;;
10090;SDS011;5084;51.386;6.778;2023-10-08T12:30:27;8.03;;;5.40;;
10090;SDS011;5084;51.386;6.778;2023-10-08T12:32:55;7.13;;;5.33;;
10090;SDS011;5084;51.386;6.778;2023-10-08T12:35:22;7.03;;;5.97;;
10090;SDS011;5084;51.386;6.778;2023-10-08T12:37:49;7.33;;;5.43;;
10090;SDS011;5084;51.386;6.778;2023-10-08T12:40:15;9.23;;;5.97;;
10090;SDS011;5084;51.386;6.778;2023-10-08T12:42:48;10.10;;;6.17;;
10090;SDS011;5084;51.386;6.778;2023-10-08T12:45:15;8.40;;;5.47;;
10090;SDS011;5084;51.386;6.778;2023-10-08T12:47:46;8.73;;;5.67;;
10090;SDS011;5084;51.386;6.778;2023-10-08T12:50:12;8.67;;;5.03;;
10090;SDS011;5084;51.386;6.778;2023-10-08T12:52:41;8.87;;;6.50;;
10090;SDS011;5084;51.386;6.778;2023-10-08T12:55:12;7.53;;;4.67;;
10090;SDS011;5084;51.386;6.778;2023-10-08T12:57:38;7.80;;;5.73;;
10090;SDS011;5084;51.386;6.778;2023-10-08T13:00:07;10.70;;;6.10;;
10090;SDS011;5084;51.386;6.778;2023-10-08T13:02:33;9.87;;;6.43;;
10090;SDS011;5084;51.386;6.778;2023-10-08T13:05:04;11.77;;;6.57;;
10090;SDS011;5084;51.386;6.778;2023-10-08T13:07:41;7.90;;;6.60;;
10090;SDS011;5084;51.386;6.778;2023-10-08T13:10:08;8.67;;;6.00;;
10090;SDS011;5084;51.386;6.778;2023-10-08T13:12:39;10.47;;;6.23;;
10090;SDS011;5084;51.386;6.778;2023-10-08T13:15:06;9.33;;;7.33;;
10090;SDS011;5084;51.386;6.778;2023-10-08T13:17:33;14.87;;;7.53;;
10090;SDS011;5084;51.386;6.778;2023-10-08T13:19:59;8.27;;;6.20;;
10090;SDS011;5084;51.386;6.778;2023-10-08T13:22:25;12.87;;;7.30;;
10090;SDS011;5084;51.386;6.778;2023-10-08T13:24:52;8.03;;;6.63;;
10090;SDS011;5084;51.386;6.778;2023-10-08T13:27:18;10.37;;;7.73;;
10090;SDS011;5084;51.386;6.778;2023-10-08T13:29:44;6.93;;;6.23;;
10090;SDS011;5084;51.386;6.778;2023-10-08T13:32:11;10.00;;;6.30;;
10090;SDS011;5084;51.386;6.778;2023-10-08T13:34:43;11.77;;;6.33;;
10090;SDS011;5084;51.386;6.778;2023-10-08T13:37:09;8.83;;;6.33;;
10090;SDS011;5084;51.386;6.778;2023-10-08T13:39:35;9.50;;;6.33;;
10090;SDS011;5084;51.386;6.778;2023-10-08T13:42:01;7.97;;;6.30;;
10090;SDS011;5084;51.386;6.778;2023-10-08T13:44:28;6.60;;;5.63;;
10090;SDS011;5084;51.386;6.778;2023-10-08T13:46:54;12.73;;;6.53;;
10090;SDS011;5084;51.386;6.778;2023-10-08T13:49:23;8.50;;;5.70;;
10090;SDS011;5084;51.386;6.778;2023-10-08T13:51:51;10.80;;;6.10;;
10090;SDS011;5084;51.386;6.778;2023-10-08T13:54:24;6.93;;;5.90;;
10090;SDS011;5084;51.386;6.778;2023-10-08T13:57:00;9.30;;;6.68;;
10090;SDS011;5084;51.386;6.778;2023-10-08T13:59:27;7.50;;;6.67;;
10090;SDS011;5084;51.386;6.778;2023-10-08T14:01:56;7.87;;;6.60;;
10090;SDS011;5084;51.386;6.778;2023-10-08T14:04:22;8.17;;;6.27;;
10090;SDS011;5084;51.386;6.778;2023-10-08T14:06:55;8.50;;;5.97;;
10090;SDS011;5084;51.386;6.778;2023-10-08T14:09:23;9.87;;;6.53;;
10090;SDS011;5084;51.386;6.778;2023-10-08T14:12:02;8.83;;;6.50;;
10090;SDS011;5084;51.386;6.778;2023-10-08T14:14:28;9.53;;;6.07;;
10090;SDS011;5084;51.386;6.778;2023-10-08T14:16:55;12.07;;;6.17;;
10090;SDS011;5084;51.386;6.778;2023-10-08T14:19:25;8.27;;;6.07;;
10090;SDS011;5084;51.386;6.778;2023-10-08T14:22:01;10.17;;;6.60;;
10090;SDS011;5084;51.386;6.778;2023-10-08T14:24:33;11.27;;;6.50;;
10090;SDS011;5084;51.386;6.778;2023-10-08T14:27:03;7.50;;;5.97;;
10090;SDS011;5084;51.386;6.778;2023-10-08T14:29:35;7.43;;;6.07;;
10090;SDS011;5084;51.386;6.778;2023-10-08T14:32:06;8.10;;;6.33;;
10090;SDS011;5084;51.386;6.778;2023-10-08T14:34:36;7.47;;;6.10;;
10090;SDS011;5084;51.386;6.778;2023-10-08T14:37:11;8.23;;;6.13;;
10090;SDS011;5084;51.386;6.778;2023-10-08T14:39:56;6.63;;;5.67;;
10090;SDS011;5084;51.386;6.778;2023-10-08T14:42:41;9.33;;;6.47;;
10090;SDS011;5084;51.386;6.778;2023-10-08T14:45:28;6.43;;;5.50;;
10090;SDS011;5084;51.386;6.778;2023-10-08T14:48:00;9.27;;;5.73;;
10090;SDS011;5084;51.386;6.778;2023-10-08T14:50:27;10.70;;;5.57;;
10090;SDS011;5084;51.386;6.778;2023-10-08T14:52:56;9.30;;;6.97;;
10090;SDS011;5084;51.386;6.778;2023-10-08T14:55:25;8.73;;;6.20;;
10090;SDS011;5084;51.386;6.778;2023-10-08T14:57:51;8.00;;;5.93;;
10090;SDS011;5084;51.386;6.778;2023-10-08T15:00:20;6.80;;;5.53;;
10090;SDS011;5084;51.386;6.778;2023-10-08T15:02:53;7.90;;;5.37;;
10090;SDS011;5084;51.386;6.778;2023-10-08T15:05:20;7.63;;;6.10;;
10090;SDS011;5084;51.386;6.778;2023-10-08T15:07:47;6.87;;;5.40;;
10090;SDS011;5084;51.386;6.778;2023-10-08T15:10:14;9.55;;;6.75;;
10090;SDS011;5084;51.386;6.778;2023-10-08T15:12:40;6.20;;;5.10;;
10090;SDS011;5084;51.386;6.778;2023-10-08T15:15:06;8.67;;;5.73;;
10090;SDS011;5084;51.386;6.778;2023-10-08T15:17:42;7.20;;;5.60;;
10090;SDS011;5084;51.386;6.778;2023-10-08T15:23:28;7.70;;;5.20;;
10090;SDS011;5084;51.386;6.778;2023-10-08T15:25:54;6.00;;;5.10;;
10090;SDS011;5084;51.386;6.778;2023-10-08T15:28:20;7.67;;;6.07;;
10090;SDS011;5084;51.386;6.778;2023-10-08T15:30:46;6.87;;;5.37;;
10090;SDS011;5084;51.386;6.778;2023-10-08T15:33:12;9.23;;;6.27;;
10090;SDS011;5084;51.386;6.778;2023-10-08T15:35:38;8.67;;;6.13;;
10090;SDS011;5084;51.386;6.778;2023-10-08T15:38:05;6.33;;;5.27;;
10090;SDS011;5084;51.386;6.778;2023-10-08T15:40:31;9.07;;;5.77;;
10090;SDS011;5084;51.386;6.778;2023-10-08T15:42:58;6.20;;;5.30;;